sensor_id;sensor_type;location;lat;lon;timestamp;temperature;humidity
10802;DHT22;5453;50.852;7.102;2023-12-22T00:00:37;7.20;99.90
10802;DHT22;5453;50.852;7.102;2023-12-22T00:03:09;7.20;99.90
10802;DHT22;5453;50.852;7.102;2023-12-22T00:05:41;7.00;99.90
10802;DHT22;5453;50.852;7.102;2023-12-22T00:08:15;6.80;99.90
10802;DHT22;5453;50.852;7.102;2023-12-22T00:10:48;6.50;99.90
10802;DHT22;5453;50.852;7.102;2023-12-22T00:13:20;6.30;99.90
10802;DHT22;5453;50.852;7.102;2023-12-22T00:15:53;6.20;99.90
10802;DHT22;5453;50.852;7.102;2023-12-22T00:18:25;6.00;99.90
10802;DHT22;5453;50.852;7.102;2023-12-22T00:20:57;5.90;99.90
10802;DHT22;5453;50.852;7.102;2023-12-22T00:23:31;5.90;99.90
10802;DHT22;5453;50.852;7.102;2023-12-22T00:26:06;5.80;99.90
10802;DHT22;5453;50.852;7.102;2023-12-22T00:28:38;5.80;99.90
10802;DHT22;5453;50.852;7.102;2023-12-22T00:31:11;5.80;99.90
10802;DHT22;5453;50.852;7.102;2023-12-22T00:33:44;5.80;99.90
10802;DHT22;5453;50.852;7.102;2023-12-22T00:36:16;5.80;99.90
10802;DHT22;5453;50.852;7.102;2023-12-22T00:38:50;5.80;99.90
10802;DHT22;5453;50.852;7.102;2023-12-22T00:41:23;5.80;99.90
10802;DHT22;5453;50.852;7.102;2023-12-22T00:43:55;5.80;99.90
10802;DHT22;5453;50.852;7.102;2023-12-22T00:46:27;5.90;99.90
10802;DHT22;5453;50.852;7.102;2023-12-22T00:49:00;5.90;99.90
10802;DHT22;5453;50.852;7.102;2023-12-22T00:51:32;5.90;99.90
10802;DHT22;5453;50.852;7.102;2023-12-22T00:54:06;5.90;99.90
10802;DHT22;5453;50.852;7.102;2023-12-22T00:56:38;5.90;99.90
10802;DHT22;5453;50.852;7.102;2023-12-22T00:59:11;6.00;99.90
10802;DHT22;5453;50.852;7.102;2023-12-22T01:01:43;6.00;99.90
10802;DHT22;5453;50.852;7.102;2023-12-22T01:04:15;6.10;99.90
10802;DHT22;5453;50.852;7.102;2023-12-22T01:06:48;6.10;99.90
10802;DHT22;5453;50.852;7.102;2023-12-22T01:09:22;6.20;99.90
10802;DHT22;5453;50.852;7.102;2023-12-22T01:11:54;6.20;99.90
10802;DHT22;5453;50.852;7.102;2023-12-22T01:14:26;6.20;99.90
10802;DHT22;5453;50.852;7.102;2023-12-22T01:16:59;6.20;99.90
10802;DHT22;5453;50.852;7.102;2023-12-22T01:19:31;6.20;99.90
10802;DHT22;5453;50.852;7.102;2023-12-22T01:22:04;6.30;99.90
10802;DHT22;5453;50.852;7.102;2023-12-22T01:24:37;6.30;99.90
10802;DHT22;5453;50.852;7.102;2023-12-22T01:27:13;6.30;99.90
10802;DHT22;5453;50.852;7.102;2023-12-22T01:29:46;6.40;99.90
10802;DHT22;5453;50.852;7.102;2023-12-22T01:32:18;6.40;99.90
10802;DHT22;5453;50.852;7.102;2023-12-22T01:34:50;6.40;99.90
10802;DHT22;5453;50.852;7.102;2023-12-22T01:37:23;6.40;99.90
10802;DHT22;5453;50.852;7.102;2023-12-22T01:39:57;6.40;99.90
10802;DHT22;5453;50.852;7.102;2023-12-22T01:42:29;6.50;99.90
10802;DHT22;5453;50.852;7.102;2023-12-22T01:45:02;6.50;99.90
10802;DHT22;5453;50.852;7.102;2023-12-22T01:47:35;6.50;99.90
10802;DHT22;5453;50.852;7.102;2023-12-22T01:50:08;6.50;99.90
10802;DHT22;5453;50.852;7.102;2023-12-22T01:52:43;6.50;99.90
10802;DHT22;5453;50.852;7.102;2023-12-22T01:55:17;6.50;99.90
10802;DHT22;5453;50.852;7.102;2023-12-22T01:57:50;6.50;99.90
10802;DHT22;5453;50.852;7.102;2023-12-22T02:00:22;6.50;99.90
10802;DHT22;5453;50.852;7.102;2023-12-22T02:02:55;6.60;99.90
10802;DHT22;5453;50.852;7.102;2023-12-22T02:05:27;6.60;99.90
10802;DHT22;5453;50.852;7.102;2023-12-22T02:08:00;6.50;99.90
10802;DHT22;5453;50.852;7.102;2023-12-22T02:10:35;6.50;99.90
10802;DHT22;5453;50.852;7.102;2023-12-22T02:13:08;6.50;99.90
10802;DHT22;5453;50.852;7.102;2023-12-22T02:15:44;6.50;99.90
10802;DHT22;5453;50.852;7.102;2023-12-22T02:18:22;6.50;99.90
10802;DHT22;5453;50.852;7.102;2023-12-22T02:20:57;6.50;99.90
10802;DHT22;5453;50.852;7.102;2023-12-22T02:23:30;6.50;99.90
10802;DHT22;5453;50.852;7.102;2023-12-22T02:26:09;6.40;99.90
10802;DHT22;5453;50.852;7.102;2023-12-22T02:28:46;6.40;99.90
10802;DHT22;5453;50.852;7.102;2023-12-22T02:31:25;6.40;99.90
10802;DHT22;5453;50.852;7.102;2023-12-22T02:34:03;6.40;99.90
10802;DHT22;5453;50.852;7.102;2023-12-22T02:36:39;6.40;99.90
10802;DHT22;5453;50.852;7.102;2023-12-22T02:39:14;6.40;99.90
10802;DHT22;5453;50.852;7.102;2023-12-22T02:41:46;6.40;99.90
10802;DHT22;5453;50.852;7.102;2023-12-22T02:44:19;6.40;99.90
10802;DHT22;5453;50.852;7.102;2023-12-22T02:46:52;6.50;99.90
10802;DHT22;5453;50.852;7.102;2023-12-22T02:49:24;6.50;99.90
10802;DHT22;5453;50.852;7.102;2023-12-22T02:51:57;6.50;99.90
10802;DHT22;5453;50.852;7.102;2023-12-22T02:54:30;6.60;99.90
10802;DHT22;5453;50.852;7.102;2023-12-22T02:57:04;6.50;99.90
10802;DHT22;5453;50.852;7.102;2023-12-22T02:59:37;6.60;99.90
10802;DHT22;5453;50.852;7.102;2023-12-22T03:02:09;6.60;99.90
10802;DHT22;5453;50.852;7.102;2023-12-22T03:04:43;6.60;99.90
10802;DHT22;5453;50.852;7.102;2023-12-22T03:07:17;6.70;99.90
10802;DHT22;5453;50.852;7.102;2023-12-22T03:09:50;6.70;99.90
10802;DHT22;5453;50.852;7.102;2023-12-22T03:12:23;6.70;99.90
10802;DHT22;5453;50.852;7.102;2023-12-22T03:14:55;6.70;99.90
10802;DHT22;5453;50.852;7.102;2023-12-22T03:17:28;6.70;99.90
10802;DHT22;5453;50.852;7.102;2023-12-22T03:20:00;6.70;99.90
10802;DHT22;5453;50.852;7.102;2023-12-22T03:22:32;6.70;99.90
10802;DHT22;5453;50.852;7.102;2023-12-22T03:25:07;6.70;99.90
10802;DHT22;5453;50.852;7.102;2023-12-22T03:27:39;6.70;99.90
10802;DHT22;5453;50.852;7.102;2023-12-22T03:30:12;6.70;99.90
10802;DHT22;5453;50.852;7.102;2023-12-22T03:32:45;6.70;99.90
10802;DHT22;5453;50.852;7.102;2023-12-22T03:35:17;6.70;99.90
10802;DHT22;5453;50.852;7.102;2023-12-22T03:37:50;6.70;99.90
10802;DHT22;5453;50.852;7.102;2023-12-22T03:40:23;6.70;99.90
10802;DHT22;5453;50.852;7.102;2023-12-22T03:42:56;6.70;99.90
10802;DHT22;5453;50.852;7.102;2023-12-22T03:45:28;6.70;99.90
10802;DHT22;5453;50.852;7.102;2023-12-22T03:48:00;6.70;99.90
10802;DHT22;5453;50.852;7.102;2023-12-22T03:50:33;6.70;99.90
10802;DHT22;5453;50.852;7.102;2023-12-22T03:53:06;6.80;99.90
10802;DHT22;5453;50.852;7.102;2023-12-22T03:55:39;6.80;99.90
10802;DHT22;5453;50.852;7.102;2023-12-22T03:58:12;6.80;99.90
10802;DHT22;5453;50.852;7.102;2023-12-22T04:00:44;6.80;99.90
10802;DHT22;5453;50.852;7.102;2023-12-22T04:03:17;6.80;99.90
10802;DHT22;5453;50.852;7.102;2023-12-22T04:05:49;6.80;99.90
10802;DHT22;5453;50.852;7.102;2023-12-22T04:08:21;6.80;99.90
10802;DHT22;5453;50.852;7.102;2023-12-22T04:10:55;6.90;99.90
10802;DHT22;5453;50.852;7.102;2023-12-22T04:13:28;7.00;99.90
10802;DHT22;5453;50.852;7.102;2023-12-22T04:16:00;7.00;99.90
10802;DHT22;5453;50.852;7.102;2023-12-22T04:18:35;7.10;99.90
10802;DHT22;5453;50.852;7.102;2023-12-22T04:21:07;7.20;99.90
10802;DHT22;5453;50.852;7.102;2023-12-22T04:23:40;7.20;99.90
10802;DHT22;5453;50.852;7.102;2023-12-22T04:26:13;7.30;99.90
10802;DHT22;5453;50.852;7.102;2023-12-22T04:28:46;7.30;99.90
10802;DHT22;5453;50.852;7.102;2023-12-22T04:31:18;7.30;99.90
10802;DHT22;5453;50.852;7.102;2023-12-22T04:33:51;7.30;99.90
10802;DHT22;5453;50.852;7.102;2023-12-22T04:36:23;7.30;99.90
10802;DHT22;5453;50.852;7.102;2023-12-22T04:38:56;7.30;99.90
10802;DHT22;5453;50.852;7.102;2023-12-22T04:41:29;7.30;99.90
10802;DHT22;5453;50.852;7.102;2023-12-22T04:44:02;7.30;99.90
10802;DHT22;5453;50.852;7.102;2023-12-22T04:46:34;7.30;99.90
10802;DHT22;5453;50.852;7.102;2023-12-22T04:49:07;7.20;99.90
10802;DHT22;5453;50.852;7.102;2023-12-22T04:51:39;7.20;99.90
10802;DHT22;5453;50.852;7.102;2023-12-22T04:54:11;7.20;99.90
10802;DHT22;5453;50.852;7.102;2023-12-22T04:56:45;7.20;99.90
10802;DHT22;5453;50.852;7.102;2023-12-22T04:59:17;7.30;99.90
10802;DHT22;5453;50.852;7.102;2023-12-22T05:01:50;7.30;99.90
10802;DHT22;5453;50.852;7.102;2023-12-22T05:04:22;7.30;99.90
10802;DHT22;5453;50.852;7.102;2023-12-22T05:06:54;7.30;99.90
10802;DHT22;5453;50.852;7.102;2023-12-22T05:09:27;7.30;99.90
10802;DHT22;5453;50.852;7.102;2023-12-22T05:12:01;7.30;99.90
10802;DHT22;5453;50.852;7.102;2023-12-22T05:14:33;7.40;99.90
10802;DHT22;5453;50.852;7.102;2023-12-22T05:17:06;7.40;99.90
10802;DHT22;5453;50.852;7.102;2023-12-22T05:19:38;7.40;99.90
10802;DHT22;5453;50.852;7.102;2023-12-22T05:22:10;7.40;99.90
10802;DHT22;5453;50.852;7.102;2023-12-22T05:24:43;7.40;99.90
10802;DHT22;5453;50.852;7.102;2023-12-22T05:27:16;7.40;99.90
10802;DHT22;5453;50.852;7.102;2023-12-22T05:29:50;7.50;99.90
10802;DHT22;5453;50.852;7.102;2023-12-22T05:32:22;7.50;99.90
10802;DHT22;5453;50.852;7.102;2023-12-22T05:34:54;7.60;99.90
10802;DHT22;5453;50.852;7.102;2023-12-22T05:37:27;7.60;99.90
10802;DHT22;5453;50.852;7.102;2023-12-22T05:39:59;7.70;99.90
10802;DHT22;5453;50.852;7.102;2023-12-22T05:42:33;7.80;99.90
10802;DHT22;5453;50.852;7.102;2023-12-22T05:45:06;7.90;99.90
10802;DHT22;5453;50.852;7.102;2023-12-22T05:47:41;7.90;99.90
10802;DHT22;5453;50.852;7.102;2023-12-22T05:50:14;7.90;99.90
10802;DHT22;5453;50.852;7.102;2023-12-22T05:52:47;8.00;99.90
10802;DHT22;5453;50.852;7.102;2023-12-22T05:55:20;8.00;99.90
10802;DHT22;5453;50.852;7.102;2023-12-22T05:57:53;8.00;99.90
10802;DHT22;5453;50.852;7.102;2023-12-22T06:00:29;8.00;99.90
10802;DHT22;5453;50.852;7.102;2023-12-22T06:03:01;8.10;99.90
10802;DHT22;5453;50.852;7.102;2023-12-22T06:05:34;8.10;99.90
10802;DHT22;5453;50.852;7.102;2023-12-22T06:08:06;8.10;99.90
10802;DHT22;5453;50.852;7.102;2023-12-22T06:10:40;8.20;99.90
10802;DHT22;5453;50.852;7.102;2023-12-22T06:13:14;8.10;99.90
10802;DHT22;5453;50.852;7.102;2023-12-22T06:15:46;8.10;99.90
10802;DHT22;5453;50.852;7.102;2023-12-22T06:18:19;8.20;99.90
10802;DHT22;5453;50.852;7.102;2023-12-22T06:20:52;8.20;99.90
10802;DHT22;5453;50.852;7.102;2023-12-22T06:23:25;8.20;99.90
10802;DHT22;5453;50.852;7.102;2023-12-22T06:25:57;8.20;99.90
10802;DHT22;5453;50.852;7.102;2023-12-22T06:28:31;8.20;99.90
10802;DHT22;5453;50.852;7.102;2023-12-22T06:31:03;8.20;99.90
10802;DHT22;5453;50.852;7.102;2023-12-22T06:33:36;8.20;99.90
10802;DHT22;5453;50.852;7.102;2023-12-22T06:36:08;8.20;99.90
10802;DHT22;5453;50.852;7.102;2023-12-22T06:38:50;8.30;99.90
10802;DHT22;5453;50.852;7.102;2023-12-22T06:41:25;8.30;99.90
10802;DHT22;5453;50.852;7.102;2023-12-22T06:44:00;8.30;99.90
10802;DHT22;5453;50.852;7.102;2023-12-22T06:46:33;8.30;99.90
10802;DHT22;5453;50.852;7.102;2023-12-22T06:49:05;8.30;99.90
10802;DHT22;5453;50.852;7.102;2023-12-22T06:51:37;8.30;99.90
10802;DHT22;5453;50.852;7.102;2023-12-22T06:54:10;8.30;99.90
10802;DHT22;5453;50.852;7.102;2023-12-22T06:56:42;8.30;99.90
10802;DHT22;5453;50.852;7.102;2023-12-22T06:59:16;8.30;99.90
10802;DHT22;5453;50.852;7.102;2023-12-22T07:01:48;8.40;99.90
10802;DHT22;5453;50.852;7.102;2023-12-22T07:04:21;8.40;99.90
10802;DHT22;5453;50.852;7.102;2023-12-22T07:06:53;8.40;99.90
10802;DHT22;5453;50.852;7.102;2023-12-22T07:09:31;8.40;99.90
10802;DHT22;5453;50.852;7.102;2023-12-22T07:12:04;8.30;99.90
10802;DHT22;5453;50.852;7.102;2023-12-22T07:14:39;8.10;99.90
10802;DHT22;5453;50.852;7.102;2023-12-22T07:17:11;7.90;99.90
10802;DHT22;5453;50.852;7.102;2023-12-22T07:19:43;7.80;99.90
10802;DHT22;5453;50.852;7.102;2023-12-22T07:22:16;7.70;99.90
10802;DHT22;5453;50.852;7.102;2023-12-22T07:24:48;7.60;99.90
10802;DHT22;5453;50.852;7.102;2023-12-22T07:27:23;7.60;99.90
10802;DHT22;5453;50.852;7.102;2023-12-22T07:29:58;7.60;99.90
10802;DHT22;5453;50.852;7.102;2023-12-22T07:32:30;7.60;99.90
10802;DHT22;5453;50.852;7.102;2023-12-22T07:35:04;7.50;99.90
10802;DHT22;5453;50.852;7.102;2023-12-22T07:37:38;7.50;99.90
10802;DHT22;5453;50.852;7.102;2023-12-22T07:40:11;7.50;99.90
10802;DHT22;5453;50.852;7.102;2023-12-22T07:42:44;7.40;99.90
10802;DHT22;5453;50.852;7.102;2023-12-22T07:45:18;7.40;99.90
10802;DHT22;5453;50.852;7.102;2023-12-22T07:47:50;7.50;99.90
10802;DHT22;5453;50.852;7.102;2023-12-22T07:50:26;7.40;99.90
10802;DHT22;5453;50.852;7.102;2023-12-22T07:52:58;7.40;99.90
10802;DHT22;5453;50.852;7.102;2023-12-22T07:55:31;7.50;99.90
10802;DHT22;5453;50.852;7.102;2023-12-22T07:58:03;7.50;99.90
10802;DHT22;5453;50.852;7.102;2023-12-22T08:00:37;7.50;99.90
10802;DHT22;5453;50.852;7.102;2023-12-22T08:03:10;7.50;99.90
10802;DHT22;5453;50.852;7.102;2023-12-22T08:05:42;7.60;99.90
10802;DHT22;5453;50.852;7.102;2023-12-22T08:08:14;7.60;99.90
10802;DHT22;5453;50.852;7.102;2023-12-22T08:10:47;7.60;99.90
10802;DHT22;5453;50.852;7.102;2023-12-22T08:13:19;7.70;99.90
10802;DHT22;5453;50.852;7.102;2023-12-22T08:15:53;7.70;99.90
10802;DHT22;5453;50.852;7.102;2023-12-22T08:18:25;7.70;99.90
10802;DHT22;5453;50.852;7.102;2023-12-22T08:20:58;7.80;99.90
10802;DHT22;5453;50.852;7.102;2023-12-22T08:23:30;7.90;99.90
10802;DHT22;5453;50.852;7.102;2023-12-22T08:26:03;7.90;99.90
10802;DHT22;5453;50.852;7.102;2023-12-22T08:28:35;7.90;99.90
10802;DHT22;5453;50.852;7.102;2023-12-22T08:31:09;8.00;99.90
10802;DHT22;5453;50.852;7.102;2023-12-22T08:33:42;7.90;99.90
10802;DHT22;5453;50.852;7.102;2023-12-22T08:36:16;8.00;99.90
10802;DHT22;5453;50.852;7.102;2023-12-22T08:38:48;8.00;99.90
10802;DHT22;5453;50.852;7.102;2023-12-22T08:41:20;8.00;99.90
10802;DHT22;5453;50.852;7.102;2023-12-22T08:43:54;8.00;99.90
10802;DHT22;5453;50.852;7.102;2023-12-22T08:46:28;8.10;99.90
10802;DHT22;5453;50.852;7.102;2023-12-22T08:49:02;8.20;99.90
10802;DHT22;5453;50.852;7.102;2023-12-22T08:51:35;8.70;99.90
10802;DHT22;5453;50.852;7.102;2023-12-22T08:54:07;8.70;99.90
10802;DHT22;5453;50.852;7.102;2023-12-22T08:56:39;8.70;99.90
10802;DHT22;5453;50.852;7.102;2023-12-22T08:59:12;8.70;99.90
10802;DHT22;5453;50.852;7.102;2023-12-22T09:01:45;8.70;99.90
10802;DHT22;5453;50.852;7.102;2023-12-22T09:04:18;8.70;99.90
10802;DHT22;5453;50.852;7.102;2023-12-22T09:06:53;8.70;99.90
10802;DHT22;5453;50.852;7.102;2023-12-22T09:09:25;8.70;99.90
10802;DHT22;5453;50.852;7.102;2023-12-22T09:11:58;8.90;99.90
10802;DHT22;5453;50.852;7.102;2023-12-22T09:14:31;8.90;99.90
10802;DHT22;5453;50.852;7.102;2023-12-22T09:17:05;8.90;99.90
10802;DHT22;5453;50.852;7.102;2023-12-22T09:19:37;8.90;99.90
10802;DHT22;5453;50.852;7.102;2023-12-22T09:22:11;8.90;99.90
10802;DHT22;5453;50.852;7.102;2023-12-22T09:24:46;8.90;99.90
10802;DHT22;5453;50.852;7.102;2023-12-22T09:27:19;8.90;99.90
10802;DHT22;5453;50.852;7.102;2023-12-22T09:29:51;8.90;99.90
10802;DHT22;5453;50.852;7.102;2023-12-22T09:32:25;8.90;99.90
10802;DHT22;5453;50.852;7.102;2023-12-22T09:34:58;8.90;99.90
10802;DHT22;5453;50.852;7.102;2023-12-22T09:37:31;8.90;99.90
10802;DHT22;5453;50.852;7.102;2023-12-22T09:40:04;8.90;99.90
10802;DHT22;5453;50.852;7.102;2023-12-22T09:42:41;8.90;99.90
10802;DHT22;5453;50.852;7.102;2023-12-22T09:45:16;8.90;99.90
10802;DHT22;5453;50.852;7.102;2023-12-22T09:47:52;8.90;99.90
10802;DHT22;5453;50.852;7.102;2023-12-22T09:50:26;9.00;99.90
10802;DHT22;5453;50.852;7.102;2023-12-22T09:52:59;9.00;99.90
10802;DHT22;5453;50.852;7.102;2023-12-22T09:55:32;9.00;99.90
10802;DHT22;5453;50.852;7.102;2023-12-22T09:58:08;9.00;99.90
10802;DHT22;5453;50.852;7.102;2023-12-22T10:00:44;9.00;99.90
10802;DHT22;5453;50.852;7.102;2023-12-22T10:03:19;9.10;99.90
10802;DHT22;5453;50.852;7.102;2023-12-22T10:05:52;9.10;99.90
10802;DHT22;5453;50.852;7.102;2023-12-22T10:08:26;9.10;99.90
10802;DHT22;5453;50.852;7.102;2023-12-22T10:10:58;9.10;99.90
10802;DHT22;5453;50.852;7.102;2023-12-22T10:13:31;9.20;99.90
10802;DHT22;5453;50.852;7.102;2023-12-22T10:16:06;9.20;99.90
10802;DHT22;5453;50.852;7.102;2023-12-22T10:18:40;9.20;99.90
10802;DHT22;5453;50.852;7.102;2023-12-22T10:21:12;9.20;99.90
10802;DHT22;5453;50.852;7.102;2023-12-22T10:23:45;9.20;99.90
10802;DHT22;5453;50.852;7.102;2023-12-22T10:26:17;9.20;99.90
10802;DHT22;5453;50.852;7.102;2023-12-22T10:28:50;9.30;99.90
10802;DHT22;5453;50.852;7.102;2023-12-22T10:31:23;9.30;99.90
10802;DHT22;5453;50.852;7.102;2023-12-22T10:33:57;9.30;99.90
10802;DHT22;5453;50.852;7.102;2023-12-22T10:36:30;9.30;99.90
10802;DHT22;5453;50.852;7.102;2023-12-22T10:39:02;9.30;99.90
10802;DHT22;5453;50.852;7.102;2023-12-22T10:41:35;9.30;99.90
10802;DHT22;5453;50.852;7.102;2023-12-22T10:44:08;9.30;99.90
10802;DHT22;5453;50.852;7.102;2023-12-22T10:46:40;9.20;99.90
10802;DHT22;5453;50.852;7.102;2023-12-22T10:49:14;9.20;99.90
10802;DHT22;5453;50.852;7.102;2023-12-22T10:51:47;9.20;99.90
10802;DHT22;5453;50.852;7.102;2023-12-22T10:54:20;9.20;99.90
10802;DHT22;5453;50.852;7.102;2023-12-22T10:56:52;9.20;99.90
10802;DHT22;5453;50.852;7.102;2023-12-22T10:59:29;9.20;99.90
10802;DHT22;5453;50.852;7.102;2023-12-22T11:02:01;9.20;99.90
10802;DHT22;5453;50.852;7.102;2023-12-22T11:04:37;9.20;99.90
10802;DHT22;5453;50.852;7.102;2023-12-22T11:07:11;9.10;99.90
10802;DHT22;5453;50.852;7.102;2023-12-22T11:09:47;9.10;99.90
10802;DHT22;5453;50.852;7.102;2023-12-22T11:14:55;9.40;99.90
10802;DHT22;5453;50.852;7.102;2023-12-22T11:17:28;9.60;99.90
10802;DHT22;5453;50.852;7.102;2023-12-22T11:20:05;9.50;99.90
10802;DHT22;5453;50.852;7.102;2023-12-22T11:22:38;9.50;99.90
10802;DHT22;5453;50.852;7.102;2023-12-22T11:25:11;9.50;99.90
10802;DHT22;5453;50.852;7.102;2023-12-22T11:27:47;9.50;99.90
10802;DHT22;5453;50.852;7.102;2023-12-22T11:30:20;9.50;99.90
10802;DHT22;5453;50.852;7.102;2023-12-22T11:32:54;9.50;99.90
10802;DHT22;5453;50.852;7.102;2023-12-22T11:35:29;9.60;99.90
10802;DHT22;5453;50.852;7.102;2023-12-22T11:38:03;9.60;99.90
10802;DHT22;5453;50.852;7.102;2023-12-22T11:40:35;9.70;99.90
10802;DHT22;5453;50.852;7.102;2023-12-22T11:43:08;9.70;99.90
10802;DHT22;5453;50.852;7.102;2023-12-22T11:45:41;9.70;99.90
10802;DHT22;5453;50.852;7.102;2023-12-22T11:48:14;9.70;99.90
10802;DHT22;5453;50.852;7.102;2023-12-22T11:50:52;9.70;99.90
10802;DHT22;5453;50.852;7.102;2023-12-22T11:53:27;9.70;99.90
10802;DHT22;5453;50.852;7.102;2023-12-22T11:56:04;9.70;99.90
10802;DHT22;5453;50.852;7.102;2023-12-22T11:58:40;9.80;99.90
10802;DHT22;5453;50.852;7.102;2023-12-22T12:01:13;9.80;99.90
10802;DHT22;5453;50.852;7.102;2023-12-22T12:03:49;9.80;99.90
10802;DHT22;5453;50.852;7.102;2023-12-22T12:06:32;9.80;99.90
10802;DHT22;5453;50.852;7.102;2023-12-22T12:09:11;9.80;99.90
10802;DHT22;5453;50.852;7.102;2023-12-22T12:12:10;9.80;99.90
10802;DHT22;5453;50.852;7.102;2023-12-22T12:14:44;9.90;99.90
10802;DHT22;5453;50.852;7.102;2023-12-22T12:17:19;9.90;99.90
10802;DHT22;5453;50.852;7.102;2023-12-22T12:19:51;9.90;99.90
10802;DHT22;5453;50.852;7.102;2023-12-22T12:22:25;9.90;99.90
10802;DHT22;5453;50.852;7.102;2023-12-22T12:24:58;10.00;99.90
10802;DHT22;5453;50.852;7.102;2023-12-22T12:27:32;10.00;99.90
10802;DHT22;5453;50.852;7.102;2023-12-22T12:30:11;10.10;99.90
10802;DHT22;5453;50.852;7.102;2023-12-22T12:32:45;10.20;99.90
10802;DHT22;5453;50.852;7.102;2023-12-22T12:35:20;10.30;99.90
10802;DHT22;5453;50.852;7.102;2023-12-22T12:37:57;10.20;99.90
10802;DHT22;5453;50.852;7.102;2023-12-22T12:40:30;10.40;99.90
10802;DHT22;5453;50.852;7.102;2023-12-22T12:43:05;10.40;99.90
10802;DHT22;5453;50.852;7.102;2023-12-22T12:45:38;10.40;99.90
10802;DHT22;5453;50.852;7.102;2023-12-22T12:48:10;10.30;99.90
10802;DHT22;5453;50.852;7.102;2023-12-22T12:50:43;10.50;99.90
10802;DHT22;5453;50.852;7.102;2023-12-22T12:53:20;10.60;99.90
10802;DHT22;5453;50.852;7.102;2023-12-22T12:55:56;10.60;99.90
10802;DHT22;5453;50.852;7.102;2023-12-22T12:58:29;10.50;99.90
10802;DHT22;5453;50.852;7.102;2023-12-22T13:01:07;10.60;99.90
10802;DHT22;5453;50.852;7.102;2023-12-22T13:03:54;10.60;99.90
10802;DHT22;5453;50.852;7.102;2023-12-22T13:06:26;10.50;99.90
10802;DHT22;5453;50.852;7.102;2023-12-22T13:09:01;10.50;99.90
10802;DHT22;5453;50.852;7.102;2023-12-22T13:11:35;10.50;99.90
10802;DHT22;5453;50.852;7.102;2023-12-22T13:14:08;10.50;99.90
10802;DHT22;5453;50.852;7.102;2023-12-22T13:16:41;10.50;99.90
10802;DHT22;5453;50.852;7.102;2023-12-22T13:19:13;10.50;99.90
10802;DHT22;5453;50.852;7.102;2023-12-22T13:21:46;10.60;99.90
10802;DHT22;5453;50.852;7.102;2023-12-22T13:24:20;10.50;99.90
10802;DHT22;5453;50.852;7.102;2023-12-22T13:27:00;10.50;99.90
10802;DHT22;5453;50.852;7.102;2023-12-22T13:29:43;10.50;99.90
10802;DHT22;5453;50.852;7.102;2023-12-22T13:32:17;10.50;99.90
10802;DHT22;5453;50.852;7.102;2023-12-22T13:34:51;10.50;99.90
10802;DHT22;5453;50.852;7.102;2023-12-22T13:37:24;10.50;99.90
10802;DHT22;5453;50.852;7.102;2023-12-22T13:40:07;10.50;99.90
10802;DHT22;5453;50.852;7.102;2023-12-22T13:42:40;10.50;99.90
10802;DHT22;5453;50.852;7.102;2023-12-22T13:45:17;10.50;99.90
10802;DHT22;5453;50.852;7.102;2023-12-22T13:47:49;10.50;99.90
10802;DHT22;5453;50.852;7.102;2023-12-22T13:50:22;10.50;99.90
10802;DHT22;5453;50.852;7.102;2023-12-22T13:52:54;10.50;99.90
10802;DHT22;5453;50.852;7.102;2023-12-22T13:55:28;10.50;99.90
10802;DHT22;5453;50.852;7.102;2023-12-22T13:58:07;10.50;99.90
10802;DHT22;5453;50.852;7.102;2023-12-22T14:00:42;10.50;99.90
10802;DHT22;5453;50.852;7.102;2023-12-22T14:03:19;10.50;99.90
10802;DHT22;5453;50.852;7.102;2023-12-22T14:05:53;10.50;99.90
10802;DHT22;5453;50.852;7.102;2023-12-22T14:08:26;10.50;99.90
10802;DHT22;5453;50.852;7.102;2023-12-22T14:11:00;10.50;99.90
10802;DHT22;5453;50.852;7.102;2023-12-22T14:13:32;10.50;99.90
10802;DHT22;5453;50.852;7.102;2023-12-22T14:16:06;10.50;99.90
10802;DHT22;5453;50.852;7.102;2023-12-22T14:18:38;10.50;99.90
10802;DHT22;5453;50.852;7.102;2023-12-22T14:21:11;10.40;99.90
10802;DHT22;5453;50.852;7.102;2023-12-22T14:23:43;10.40;99.90
10802;DHT22;5453;50.852;7.102;2023-12-22T14:26:17;10.40;99.90
10802;DHT22;5453;50.852;7.102;2023-12-22T14:28:49;10.30;99.90
10802;DHT22;5453;50.852;7.102;2023-12-22T14:31:22;10.30;99.90
10802;DHT22;5453;50.852;7.102;2023-12-22T14:33:54;10.30;99.90
10802;DHT22;5453;50.852;7.102;2023-12-22T14:36:29;10.30;99.90
10802;DHT22;5453;50.852;7.102;2023-12-22T14:39:01;10.20;99.90
10802;DHT22;5453;50.852;7.102;2023-12-22T14:41:35;10.20;99.90
10802;DHT22;5453;50.852;7.102;2023-12-22T14:44:07;10.20;99.90
10802;DHT22;5453;50.852;7.102;2023-12-22T14:46:40;10.20;99.90
10802;DHT22;5453;50.852;7.102;2023-12-22T14:49:16;10.20;99.90
10802;DHT22;5453;50.852;7.102;2023-12-22T14:51:48;10.20;99.90
10802;DHT22;5453;50.852;7.102;2023-12-22T14:54:22;10.20;99.90
10802;DHT22;5453;50.852;7.102;2023-12-22T14:56:56;10.20;99.90
10802;DHT22;5453;50.852;7.102;2023-12-22T14:59:28;10.20;99.90
10802;DHT22;5453;50.852;7.102;2023-12-22T15:02:03;10.20;99.90
10802;DHT22;5453;50.852;7.102;2023-12-22T15:04:36;10.20;99.90
10802;DHT22;5453;50.852;7.102;2023-12-22T15:07:08;10.20;99.90
10802;DHT22;5453;50.852;7.102;2023-12-22T15:09:41;10.20;99.90
10802;DHT22;5453;50.852;7.102;2023-12-22T15:12:15;10.20;99.90
10802;DHT22;5453;50.852;7.102;2023-12-22T15:14:47;10.20;99.90
10802;DHT22;5453;50.852;7.102;2023-12-22T15:17:20;10.20;99.90
10802;DHT22;5453;50.852;7.102;2023-12-22T15:19:52;10.20;99.90
10802;DHT22;5453;50.852;7.102;2023-12-22T15:22:24;10.20;99.90
10802;DHT22;5453;50.852;7.102;2023-12-22T15:24:57;10.10;99.90
10802;DHT22;5453;50.852;7.102;2023-12-22T15:27:31;10.10;99.90
10802;DHT22;5453;50.852;7.102;2023-12-22T15:30:04;10.10;99.90
10802;DHT22;5453;50.852;7.102;2023-12-22T15:32:37;10.00;99.90
10802;DHT22;5453;50.852;7.102;2023-12-22T15:35:10;10.10;99.90
10802;DHT22;5453;50.852;7.102;2023-12-22T15:37:42;10.10;99.90
10802;DHT22;5453;50.852;7.102;2023-12-22T15:40:15;10.00;99.90
10802;DHT22;5453;50.852;7.102;2023-12-22T15:42:49;10.10;99.90
10802;DHT22;5453;50.852;7.102;2023-12-22T15:45:20;10.10;99.90
10802;DHT22;5453;50.852;7.102;2023-12-22T15:47:53;10.10;99.90
10802;DHT22;5453;50.852;7.102;2023-12-22T15:50:25;10.10;99.90
10802;DHT22;5453;50.852;7.102;2023-12-22T15:52:58;10.10;99.90
10802;DHT22;5453;50.852;7.102;2023-12-22T15:55:30;10.10;99.90
10802;DHT22;5453;50.852;7.102;2023-12-22T15:58:04;10.10;99.90
10802;DHT22;5453;50.852;7.102;2023-12-22T16:00:36;10.00;99.90
10802;DHT22;5453;50.852;7.102;2023-12-22T16:03:08;10.00;99.90
10802;DHT22;5453;50.852;7.102;2023-12-22T16:05:41;10.00;99.90
10802;DHT22;5453;50.852;7.102;2023-12-22T16:08:13;10.00;99.90
10802;DHT22;5453;50.852;7.102;2023-12-22T16:10:46;10.00;99.90
10802;DHT22;5453;50.852;7.102;2023-12-22T16:13:20;10.00;99.90
10802;DHT22;5453;50.852;7.102;2023-12-22T16:15:53;10.00;99.90
10802;DHT22;5453;50.852;7.102;2023-12-22T16:18:26;10.00;99.90
10802;DHT22;5453;50.852;7.102;2023-12-22T16:21:00;10.00;99.90
10802;DHT22;5453;50.852;7.102;2023-12-22T16:23:33;10.00;99.90
10802;DHT22;5453;50.852;7.102;2023-12-22T16:26:10;10.00;99.90
10802;DHT22;5453;50.852;7.102;2023-12-22T16:28:44;10.00;99.90
10802;DHT22;5453;50.852;7.102;2023-12-22T16:31:17;10.00;99.90
10802;DHT22;5453;50.852;7.102;2023-12-22T16:33:49;10.00;99.90
10802;DHT22;5453;50.852;7.102;2023-12-22T16:36:21;10.00;99.90
10802;DHT22;5453;50.852;7.102;2023-12-22T16:38:54;10.00;99.90